LFMK/CCF METAR and TAF weather

Enter ICAO airport designator
Station Type Date Time Source
LFMK METAR 2020/04/05 23:00 UTC NOAA

LFMK 052300Z AUTO 08013KT CAVOK 11/07 Q1020


Station Type Date Time Source
LFMK Decoded METAR 2020/04/05 23:00 UTC NOAA

Carcassonne, France (LFMK) 43-13N 002-19E 130M
Apr 05, 2020 - 07:00 PM EDT / 2020.04.05 2300 UTC
Wind: from the E (080 degrees) at 15 MPH (13 KT):0
Visibility: greater than 7 mile(s):0
Temperature: 51 F (11 C)
Dew Point: 44 F (7 C)
Relative Humidity: 76%
Pressure (altimeter): 30.12 in. Hg (1020 hPa)
ob: LFMK 052300Z AUTO 08013KT CAVOK 11/07 Q1020
cycle: 23

Station Type Date Time Source
LFMK TAF 2020/04/05 17:06 UTC NOAA

TAF LFMK 051759Z 0517/0615 CNL

Example: see airport list